sensor_id;sensor_type;location;lat;lon;timestamp;pressure;altitude;pressure_sealevel;temperature;humidity
11676;BME280;5894;42.768;23.404;2022-12-10T00:01:41;95022.31;;;9.25;100.00
11676;BME280;5894;42.768;23.404;2022-12-10T00:04:09;95035.25;;;9.04;100.00
11676;BME280;5894;42.768;23.404;2022-12-10T00:06:37;95036.06;;;9.13;100.00
11676;BME280;5894;42.768;23.404;2022-12-10T00:09:06;95024.31;;;9.19;100.00
11676;BME280;5894;42.768;23.404;2022-12-10T00:11:34;95025.56;;;9.13;100.00
11676;BME280;5894;42.768;23.404;2022-12-10T00:14:02;95026.31;;;9.13;100.00
11676;BME280;5894;42.768;23.404;2022-12-10T00:16:29;95029.09;;;9.17;100.00
11676;BME280;5894;42.768;23.404;2022-12-10T00:18:58;95033.75;;;9.11;100.00
11676;BME280;5894;42.768;23.404;2022-12-10T00:21:27;95033.84;;;8.98;100.00
11676;BME280;5894;42.768;23.404;2022-12-10T00:23:55;95015.94;;;9.08;100.00
11676;BME280;5894;42.768;23.404;2022-12-10T00:26:24;95020.88;;;9.10;100.00
11676;BME280;5894;42.768;23.404;2022-12-10T00:28:52;95024.28;;;9.10;100.00
11676;BME280;5894;42.768;23.404;2022-12-10T00:31:22;95020.38;;;8.99;100.00
11676;BME280;5894;42.768;23.404;2022-12-10T00:33:50;95004.56;;;8.91;100.00
11676;BME280;5894;42.768;23.404;2022-12-10T00:36:19;95027.97;;;9.01;100.00
11676;BME280;5894;42.768;23.404;2022-12-10T00:38:47;95026.72;;;8.98;100.00
11676;BME280;5894;42.768;23.404;2022-12-10T00:41:15;94995.81;;;8.73;100.00
11676;BME280;5894;42.768;23.404;2022-12-10T00:43:42;95033.34;;;8.96;100.00
11676;BME280;5894;42.768;23.404;2022-12-10T00:46:10;94971.00;;;8.48;100.00
11676;BME280;5894;42.768;23.404;2022-12-10T00:48:40;94978.47;;;8.63;100.00
11676;BME280;5894;42.768;23.404;2022-12-10T00:51:10;94896.88;;;8.06;100.00
11676;BME280;5894;42.768;23.404;2022-12-10T00:53:39;94971.25;;;8.69;100.00
11676;BME280;5894;42.768;23.404;2022-12-10T00:56:07;95005.97;;;8.97;100.00
11676;BME280;5894;42.768;23.404;2022-12-10T00:58:35;95025.34;;;9.01;100.00
11676;BME280;5894;42.768;23.404;2022-12-10T01:01:13;95032.75;;;8.99;100.00
11676;BME280;5894;42.768;23.404;2022-12-10T01:03:42;95033.38;;;9.04;100.00
11676;BME280;5894;42.768;23.404;2022-12-10T01:06:13;95016.66;;;8.92;100.00
11676;BME280;5894;42.768;23.404;2022-12-10T01:08:41;95031.09;;;9.03;100.00
11676;BME280;5894;42.768;23.404;2022-12-10T01:11:08;95038.97;;;9.03;100.00
11676;BME280;5894;42.768;23.404;2022-12-10T01:13:36;95025.97;;;9.06;100.00
11676;BME280;5894;42.768;23.404;2022-12-10T01:16:05;95030.13;;;8.99;100.00
11676;BME280;5894;42.768;23.404;2022-12-10T01:18:32;95026.72;;;8.98;100.00
11676;BME280;5894;42.768;23.404;2022-12-10T01:21:02;95022.25;;;9.07;100.00
11676;BME280;5894;42.768;23.404;2022-12-10T01:23:32;95007.34;;;8.94;100.00
11676;BME280;5894;42.768;23.404;2022-12-10T01:26:00;95025.44;;;8.87;100.00
11676;BME280;5894;42.768;23.404;2022-12-10T01:28:29;95024.19;;;8.84;100.00
11676;BME280;5894;42.768;23.404;2022-12-10T01:31:00;95011.50;;;8.87;100.00
11676;BME280;5894;42.768;23.404;2022-12-10T01:33:27;95005.63;;;8.81;100.00
11676;BME280;5894;42.768;23.404;2022-12-10T01:35:53;95019.16;;;8.66;100.00
11676;BME280;5894;42.768;23.404;2022-12-10T01:38:22;95012.63;;;8.63;100.00
11676;BME280;5894;42.768;23.404;2022-12-10T01:40:49;95016.56;;;8.74;100.00
11676;BME280;5894;42.768;23.404;2022-12-10T01:43:15;95018.59;;;8.77;100.00
11676;BME280;5894;42.768;23.404;2022-12-10T01:45:42;95011.22;;;8.88;100.00
11676;BME280;5894;42.768;23.404;2022-12-10T01:48:09;95013.56;;;8.98;100.00
11676;BME280;5894;42.768;23.404;2022-12-10T01:50:36;95012.69;;;9.03;100.00
11676;BME280;5894;42.768;23.404;2022-12-10T01:53:04;95016.81;;;9.04;100.00
11676;BME280;5894;42.768;23.404;2022-12-10T01:55:42;95005.66;;;8.90;100.00
11676;BME280;5894;42.768;23.404;2022-12-10T01:58:09;95018.59;;;9.17;100.00
11676;BME280;5894;42.768;23.404;2022-12-10T02:00:40;95013.81;;;9.19;100.00
11676;BME280;5894;42.768;23.404;2022-12-10T02:03:18;95002.19;;;9.20;100.00
11676;BME280;5894;42.768;23.404;2022-12-10T02:05:51;95001.59;;;9.23;100.00
11676;BME280;5894;42.768;23.404;2022-12-10T02:08:26;94991.84;;;9.24;100.00
11676;BME280;5894;42.768;23.404;2022-12-10T02:11:01;94997.44;;;9.31;100.00
11676;BME280;5894;42.768;23.404;2022-12-10T02:13:33;94996.03;;;9.33;100.00
11676;BME280;5894;42.768;23.404;2022-12-10T02:16:08;95005.75;;;9.24;100.00
11676;BME280;5894;42.768;23.404;2022-12-10T02:18:41;94995.22;;;9.24;100.00
11676;BME280;5894;42.768;23.404;2022-12-10T02:21:13;94998.97;;;9.23;100.00
11676;BME280;5894;42.768;23.404;2022-12-10T02:23:45;94989.84;;;9.29;100.00
11676;BME280;5894;42.768;23.404;2022-12-10T02:26:22;94982.56;;;9.35;100.00
11676;BME280;5894;42.768;23.404;2022-12-10T02:31:26;94967.25;;;9.37;100.00
11676;BME280;5894;42.768;23.404;2022-12-10T02:33:58;94959.53;;;9.40;100.00
11676;BME280;5894;42.768;23.404;2022-12-10T02:36:29;94883.16;;;8.89;100.00
11676;BME280;5894;42.768;23.404;2022-12-10T02:39:00;94918.63;;;9.08;100.00
11676;BME280;5894;42.768;23.404;2022-12-10T02:41:33;94898.31;;;8.92;100.00
11676;BME280;5894;42.768;23.404;2022-12-10T02:44:04;94955.34;;;9.39;100.00
11676;BME280;5894;42.768;23.404;2022-12-10T02:46:35;94953.94;;;9.42;100.00
11676;BME280;5894;42.768;23.404;2022-12-10T02:49:06;94959.34;;;9.37;100.00
11676;BME280;5894;42.768;23.404;2022-12-10T02:51:35;94962.28;;;9.35;100.00
11676;BME280;5894;42.768;23.404;2022-12-10T02:54:04;94969.88;;;9.45;100.00
11676;BME280;5894;42.768;23.404;2022-12-10T02:56:37;94975.47;;;9.52;100.00
11676;BME280;5894;42.768;23.404;2022-12-10T02:59:14;94972.22;;;9.55;100.00
11676;BME280;5894;42.768;23.404;2022-12-10T03:01:54;94977.47;;;9.55;100.00
11676;BME280;5894;42.768;23.404;2022-12-10T03:04:31;94975.97;;;9.54;100.00
11676;BME280;5894;42.768;23.404;2022-12-10T03:07:02;94973.94;;;9.51;100.00
11676;BME280;5894;42.768;23.404;2022-12-10T03:09:35;94976.25;;;9.62;100.00
11676;BME280;5894;42.768;23.404;2022-12-10T03:12:09;94980.44;;;9.63;100.00
11676;BME280;5894;42.768;23.404;2022-12-10T03:14:40;94968.53;;;9.65;100.00
11676;BME280;5894;42.768;23.404;2022-12-10T03:17:09;94948.69;;;9.59;100.00
11676;BME280;5894;42.768;23.404;2022-12-10T03:19:37;94958.63;;;9.71;100.00
11676;BME280;5894;42.768;23.404;2022-12-10T03:22:07;94948.09;;;9.71;100.00
11676;BME280;5894;42.768;23.404;2022-12-10T03:24:36;94957.06;;;9.70;100.00
11676;BME280;5894;42.768;23.404;2022-12-10T03:27:04;94958.47;;;9.76;100.00
11676;BME280;5894;42.768;23.404;2022-12-10T03:29:35;94955.19;;;9.79;100.00
11676;BME280;5894;42.768;23.404;2022-12-10T03:32:04;94947.94;;;9.76;100.00
11676;BME280;5894;42.768;23.404;2022-12-10T03:34:33;94952.91;;;9.86;100.00
11676;BME280;5894;42.768;23.404;2022-12-10T03:37:01;94950.25;;;9.86;100.00
11676;BME280;5894;42.768;23.404;2022-12-10T03:39:28;94951.94;;;9.90;100.00
11676;BME280;5894;42.768;23.404;2022-12-10T03:41:55;94947.44;;;9.91;100.00
11676;BME280;5894;42.768;23.404;2022-12-10T03:44:29;94941.56;;;9.77;100.00
11676;BME280;5894;42.768;23.404;2022-12-10T03:46:57;94916.78;;;9.69;100.00
11676;BME280;5894;42.768;23.404;2022-12-10T03:49:24;94940.19;;;9.97;100.00
11676;BME280;5894;42.768;23.404;2022-12-10T03:51:52;94944.50;;;9.92;100.00
11676;BME280;5894;42.768;23.404;2022-12-10T03:54:19;94937.53;;;9.88;100.00
11676;BME280;5894;42.768;23.404;2022-12-10T03:56:46;94941.88;;;9.92;100.00
11676;BME280;5894;42.768;23.404;2022-12-10T03:59:20;94937.69;;;10.00;100.00
11676;BME280;5894;42.768;23.404;2022-12-10T04:01:47;94940.63;;;9.99;100.00
11676;BME280;5894;42.768;23.404;2022-12-10T04:04:13;94863.09;;;9.53;100.00
11676;BME280;5894;42.768;23.404;2022-12-10T04:06:41;94937.69;;;10.00;100.00
11676;BME280;5894;42.768;23.404;2022-12-10T04:09:10;94861.22;;;9.45;100.00
11676;BME280;5894;42.768;23.404;2022-12-10T04:11:38;94944.03;;;9.99;100.00
11676;BME280;5894;42.768;23.404;2022-12-10T04:14:04;94947.28;;;10.05;100.00
11676;BME280;5894;42.768;23.404;2022-12-10T04:16:49;94942.81;;;10.05;100.00
11676;BME280;5894;42.768;23.404;2022-12-10T04:19:17;94949.16;;;10.04;100.00
11676;BME280;5894;42.768;23.404;2022-12-10T04:21:45;94907.03;;;9.78;100.00
11676;BME280;5894;42.768;23.404;2022-12-10T04:24:32;94946.66;;;10.08;100.00
11676;BME280;5894;42.768;23.404;2022-12-10T04:27:20;94963.38;;;10.12;100.00
11676;BME280;5894;42.768;23.404;2022-12-10T04:29:49;94910.44;;;9.79;100.00
11676;BME280;5894;42.768;23.404;2022-12-10T04:32:17;94937.69;;;10.00;100.00
11676;BME280;5894;42.768;23.404;2022-12-10T04:34:44;94936.78;;;9.96;100.00
11676;BME280;5894;42.768;23.404;2022-12-10T04:37:11;94945.56;;;10.00;100.00
11676;BME280;5894;42.768;23.404;2022-12-10T04:39:39;94963.72;;;10.19;100.00
11676;BME280;5894;42.768;23.404;2022-12-10T04:42:07;94967.75;;;10.25;100.00
11676;BME280;5894;42.768;23.404;2022-12-10T04:44:34;94953.50;;;10.26;100.00
11676;BME280;5894;42.768;23.404;2022-12-10T04:47:01;94952.53;;;10.30;100.00
11676;BME280;5894;42.768;23.404;2022-12-10T04:49:29;94943.84;;;10.30;100.00
11676;BME280;5894;42.768;23.404;2022-12-10T04:51:57;94945.09;;;10.33;100.00
11676;BME280;5894;42.768;23.404;2022-12-10T04:54:24;94907.94;;;10.00;100.00
11676;BME280;5894;42.768;23.404;2022-12-10T04:56:54;94947.25;;;10.30;100.00
11676;BME280;5894;42.768;23.404;2022-12-10T04:59:21;94938.28;;;10.32;100.00
11676;BME280;5894;42.768;23.404;2022-12-10T05:01:48;94948.00;;;10.40;100.00
11676;BME280;5894;42.768;23.404;2022-12-10T05:04:16;94934.41;;;10.38;100.00
11676;BME280;5894;42.768;23.404;2022-12-10T05:06:44;94952.34;;;10.44;100.00
11676;BME280;5894;42.768;23.404;2022-12-10T05:09:12;94953.72;;;10.50;100.00
11676;BME280;5894;42.768;23.404;2022-12-10T05:11:40;94928.47;;;10.41;100.00
11676;BME280;5894;42.768;23.404;2022-12-10T05:14:10;94954.97;;;10.53;100.00
11676;BME280;5894;42.768;23.404;2022-12-10T05:16:37;94952.50;;;10.48;100.00
11676;BME280;5894;42.768;23.404;2022-12-10T05:19:03;94947.53;;;10.46;100.00
11676;BME280;5894;42.768;23.404;2022-12-10T05:21:31;94956.06;;;10.43;100.00
11676;BME280;5894;42.768;23.404;2022-12-10T05:24:11;94930.66;;;10.39;100.00
11676;BME280;5894;42.768;23.404;2022-12-10T05:26:38;94893.53;;;10.06;100.00
11676;BME280;5894;42.768;23.404;2022-12-10T05:29:05;94921.41;;;10.24;100.00
11676;BME280;5894;42.768;23.404;2022-12-10T05:31:33;94941.03;;;10.44;100.00
11676;BME280;5894;42.768;23.404;2022-12-10T05:34:00;94935.56;;;10.49;100.00
11676;BME280;5894;42.768;23.404;2022-12-10T05:36:28;94928.00;;;10.47;100.00
11676;BME280;5894;42.768;23.404;2022-12-10T05:38:56;94895.50;;;10.17;100.00
11676;BME280;5894;42.768;23.404;2022-12-10T05:41:27;94934.19;;;10.51;100.00
11676;BME280;5894;42.768;23.404;2022-12-10T05:43:55;94926.09;;;10.56;100.00
11676;BME280;5894;42.768;23.404;2022-12-10T05:46:24;94919.28;;;10.55;100.00
11676;BME280;5894;42.768;23.404;2022-12-10T05:48:53;94923.94;;;10.50;100.00
11676;BME280;5894;42.768;23.404;2022-12-10T05:51:22;94931.41;;;10.48;100.00
11676;BME280;5894;42.768;23.404;2022-12-10T05:53:52;94930.63;;;10.47;100.00
11676;BME280;5894;42.768;23.404;2022-12-10T05:56:21;94930.31;;;10.49;100.00
11676;BME280;5894;42.768;23.404;2022-12-10T05:58:50;94961.00;;;10.53;100.00
11676;BME280;5894;42.768;23.404;2022-12-10T06:01:19;94948.13;;;10.52;100.00
11676;BME280;5894;42.768;23.404;2022-12-10T06:03:46;94898.63;;;10.19;100.00
11676;BME280;5894;42.768;23.404;2022-12-10T06:06:20;94967.34;;;10.61;100.00
11676;BME280;5894;42.768;23.404;2022-12-10T06:08:48;94953.28;;;10.48;100.00
11676;BME280;5894;42.768;23.404;2022-12-10T06:11:15;94969.53;;;10.50;100.00
11676;BME280;5894;42.768;23.404;2022-12-10T06:13:42;94958.69;;;10.52;100.00
11676;BME280;5894;42.768;23.404;2022-12-10T06:16:12;94957.91;;;10.51;100.00
11676;BME280;5894;42.768;23.404;2022-12-10T06:18:40;94950.00;;;10.51;100.00
11676;BME280;5894;42.768;23.404;2022-12-10T06:21:09;94953.13;;;10.45;100.00
11676;BME280;5894;42.768;23.404;2022-12-10T06:23:38;94955.91;;;10.48;100.00
11676;BME280;5894;42.768;23.404;2022-12-10T06:26:06;94952.63;;;10.51;100.00
11676;BME280;5894;42.768;23.404;2022-12-10T06:28:34;94911.16;;;10.22;100.00
11676;BME280;5894;42.768;23.404;2022-12-10T06:31:01;94934.38;;;10.46;100.00
11676;BME280;5894;42.768;23.404;2022-12-10T06:33:28;94938.69;;;10.51;100.00
11676;BME280;5894;42.768;23.404;2022-12-10T06:35:55;94951.97;;;10.63;100.00
11676;BME280;5894;42.768;23.404;2022-12-10T06:38:22;94944.84;;;10.63;100.00
11676;BME280;5894;42.768;23.404;2022-12-10T06:40:50;94934.59;;;10.62;100.00
11676;BME280;5894;42.768;23.404;2022-12-10T06:43:18;94940.63;;;10.71;100.00
11676;BME280;5894;42.768;23.404;2022-12-10T06:45:44;94941.84;;;10.74;100.00
11676;BME280;5894;42.768;23.404;2022-12-10T06:48:11;94948.69;;;10.75;100.00
11676;BME280;5894;42.768;23.404;2022-12-10T06:50:38;94953.34;;;10.78;100.00
11676;BME280;5894;42.768;23.404;2022-12-10T06:53:06;94947.91;;;10.74;100.00
11676;BME280;5894;42.768;23.404;2022-12-10T06:55:33;94949.59;;;10.79;100.00
11676;BME280;5894;42.768;23.404;2022-12-10T06:58:03;94961.97;;;10.87;100.00
11676;BME280;5894;42.768;23.404;2022-12-10T07:00:30;94961.34;;;10.90;100.00
11676;BME280;5894;42.768;23.404;2022-12-10T07:02:57;94954.97;;;10.91;100.00
11676;BME280;5894;42.768;23.404;2022-12-10T07:05:24;94962.84;;;10.99;100.00
11676;BME280;5894;42.768;23.404;2022-12-10T07:07:51;94964.84;;;11.02;100.00
11676;BME280;5894;42.768;23.404;2022-12-10T07:10:18;94966.53;;;11.07;100.00
11676;BME280;5894;42.768;23.404;2022-12-10T07:12:46;94974.16;;;11.09;100.00
11676;BME280;5894;42.768;23.404;2022-12-10T07:15:15;94982.19;;;11.12;100.00
11676;BME280;5894;42.768;23.404;2022-12-10T07:17:42;94974.25;;;11.12;100.00
11676;BME280;5894;42.768;23.404;2022-12-10T07:20:10;94968.63;;;11.22;100.00
11676;BME280;5894;42.768;23.404;2022-12-10T07:22:37;94963.94;;;11.28;100.00
11676;BME280;5894;42.768;23.404;2022-12-10T07:25:04;94951.38;;;11.25;100.00
11676;BME280;5894;42.768;23.404;2022-12-10T07:27:31;94931.63;;;11.31;100.00
11676;BME280;5894;42.768;23.404;2022-12-10T07:29:58;94932.34;;;11.40;100.00
11676;BME280;5894;42.768;23.404;2022-12-10T07:32:28;94817.44;;;10.72;100.00
11676;BME280;5894;42.768;23.404;2022-12-10T07:34:54;94935.69;;;11.49;100.00
11676;BME280;5894;42.768;23.404;2022-12-10T07:37:21;94930.81;;;11.39;100.00
11676;BME280;5894;42.768;23.404;2022-12-10T07:39:48;94934.16;;;11.48;100.00
11676;BME280;5894;42.768;23.404;2022-12-10T07:42:15;94935.81;;;11.53;100.00
11676;BME280;5894;42.768;23.404;2022-12-10T07:44:42;94938.91;;;11.55;100.00
11676;BME280;5894;42.768;23.404;2022-12-10T07:47:09;94912.44;;;11.43;100.00
11676;BME280;5894;42.768;23.404;2022-12-10T07:49:37;94895.88;;;11.33;100.00
11676;BME280;5894;42.768;23.404;2022-12-10T07:52:04;94908.66;;;11.52;100.00
11676;BME280;5894;42.768;23.404;2022-12-10T07:54:31;94894.72;;;11.43;100.00
11676;BME280;5894;42.768;23.404;2022-12-10T07:56:57;94920.50;;;11.67;100.00
11676;BME280;5894;42.768;23.404;2022-12-10T07:59:24;94902.00;;;11.67;100.00
11676;BME280;5894;42.768;23.404;2022-12-10T08:01:51;94912.97;;;11.77;100.00
11676;BME280;5894;42.768;23.404;2022-12-10T08:04:18;94910.16;;;11.83;100.00
11676;BME280;5894;42.768;23.404;2022-12-10T08:06:46;94908.84;;;11.89;100.00
11676;BME280;5894;42.768;23.404;2022-12-10T08:09:13;94895.72;;;11.80;100.00
11676;BME280;5894;42.768;23.404;2022-12-10T08:11:40;94905.78;;;11.99;100.00
11676;BME280;5894;42.768;23.404;2022-12-10T08:14:07;94907.47;;;12.03;100.00
11676;BME280;5894;42.768;23.404;2022-12-10T08:16:33;94901.84;;;12.05;100.00
11676;BME280;5894;42.768;23.404;2022-12-10T08:19:00;94914.88;;;12.10;100.00
11676;BME280;5894;42.768;23.404;2022-12-10T08:21:29;94918.28;;;12.10;100.00
11676;BME280;5894;42.768;23.404;2022-12-10T08:23:58;94924.91;;;12.17;100.00
11676;BME280;5894;42.768;23.404;2022-12-10T08:26:27;94928.00;;;12.19;100.00
11676;BME280;5894;42.768;23.404;2022-12-10T08:28:55;94928.66;;;12.28;100.00
11676;BME280;5894;42.768;23.404;2022-12-10T08:31:24;94920.66;;;12.24;100.00
11676;BME280;5894;42.768;23.404;2022-12-10T08:33:51;94925.47;;;12.22;100.00
11676;BME280;5894;42.768;23.404;2022-12-10T08:36:19;94908.38;;;12.20;100.00
11676;BME280;5894;42.768;23.404;2022-12-10T08:38:46;94893.31;;;12.20;100.00
11676;BME280;5894;42.768;23.404;2022-12-10T08:41:16;94897.81;;;12.20;100.00
11676;BME280;5894;42.768;23.404;2022-12-10T08:43:43;94895.19;;;12.20;100.00
11676;BME280;5894;42.768;23.404;2022-12-10T08:46:12;94900.91;;;12.22;100.00
11676;BME280;5894;42.768;23.404;2022-12-10T08:48:40;94886.69;;;12.14;100.00
11676;BME280;5894;42.768;23.404;2022-12-10T08:51:07;94893.75;;;12.22;100.00
11676;BME280;5894;42.768;23.404;2022-12-10T08:53:35;94890.88;;;12.27;100.00
11676;BME280;5894;42.768;23.404;2022-12-10T08:56:02;94893.13;;;12.37;100.00
11676;BME280;5894;42.768;23.404;2022-12-10T08:58:30;94882.78;;;12.44;100.00
11676;BME280;5894;42.768;23.404;2022-12-10T09:00:57;94854.78;;;12.31;100.00
11676;BME280;5894;42.768;23.404;2022-12-10T09:03:24;94876.84;;;12.60;100.00
11676;BME280;5894;42.768;23.404;2022-12-10T09:05:51;94867.78;;;12.61;100.00
11676;BME280;5894;42.768;23.404;2022-12-10T09:08:18;94855.34;;;12.61;100.00
11676;BME280;5894;42.768;23.404;2022-12-10T09:10:45;94846.84;;;12.68;100.00
11676;BME280;5894;42.768;23.404;2022-12-10T09:13:13;94845.09;;;12.72;100.00
11676;BME280;5894;42.768;23.404;2022-12-10T09:15:48;94853.94;;;12.76;100.00
11676;BME280;5894;42.768;23.404;2022-12-10T09:18:15;94828.00;;;12.57;100.00
11676;BME280;5894;42.768;23.404;2022-12-10T09:20:42;94842.25;;;12.77;100.00
11676;BME280;5894;42.768;23.404;2022-12-10T09:23:09;94839.59;;;12.77;100.00
11676;BME280;5894;42.768;23.404;2022-12-10T09:25:38;94818.75;;;12.63;100.00
11676;BME280;5894;42.768;23.404;2022-12-10T09:28:05;94856.53;;;12.88;100.00
11676;BME280;5894;42.768;23.404;2022-12-10T09:30:32;94858.19;;;12.93;100.00
11676;BME280;5894;42.768;23.404;2022-12-10T09:33:01;94858.41;;;13.00;100.00
11676;BME280;5894;42.768;23.404;2022-12-10T09:35:28;94844.50;;;13.03;100.00
11676;BME280;5894;42.768;23.404;2022-12-10T09:37:55;94836.25;;;13.04;100.00
11676;BME280;5894;42.768;23.404;2022-12-10T09:40:29;94835.22;;;13.09;100.00
11676;BME280;5894;42.768;23.404;2022-12-10T09:43:02;94833.34;;;13.09;100.00
11676;BME280;5894;42.768;23.404;2022-12-10T09:45:36;94840.00;;;13.15;100.00
11676;BME280;5894;42.768;23.404;2022-12-10T09:48:15;94824.56;;;13.17;100.00
11676;BME280;5894;42.768;23.404;2022-12-10T09:50:52;94802.81;;;13.12;100.00
11676;BME280;5894;42.768;23.404;2022-12-10T09:53:22;94784.84;;;13.05;100.00
11676;BME280;5894;42.768;23.404;2022-12-10T09:55:51;94799.28;;;13.20;100.00
11676;BME280;5894;42.768;23.404;2022-12-10T09:58:21;94794.84;;;13.24;100.00
11676;BME280;5894;42.768;23.404;2022-12-10T10:00:52;94788.78;;;13.23;100.00
11676;BME280;5894;42.768;23.404;2022-12-10T10:03:22;94776.84;;;13.30;100.00
11676;BME280;5894;42.768;23.404;2022-12-10T10:05:50;94774.63;;;13.32;100.00
11676;BME280;5894;42.768;23.404;2022-12-10T10:08:24;94783.91;;;13.38;100.00
11676;BME280;5894;42.768;23.404;2022-12-10T10:10:53;94782.09;;;13.42;100.00
11676;BME280;5894;42.768;23.404;2022-12-10T10:13:28;94779.13;;;13.43;100.00
11676;BME280;5894;42.768;23.404;2022-12-10T10:16:00;94763.22;;;13.43;100.00
11676;BME280;5894;42.768;23.404;2022-12-10T10:18:37;94763.13;;;13.40;100.00
11676;BME280;5894;42.768;23.404;2022-12-10T10:21:14;94771.63;;;13.61;100.00
11676;BME280;5894;42.768;23.404;2022-12-10T10:23:44;94750.25;;;13.54;100.00
11676;BME280;5894;42.768;23.404;2022-12-10T10:26:12;94766.97;;;13.70;100.00
11676;BME280;5894;42.768;23.404;2022-12-10T10:28:39;94766.59;;;13.72;100.00
11676;BME280;5894;42.768;23.404;2022-12-10T10:31:16;94777.06;;;13.80;100.00
11676;BME280;5894;42.768;23.404;2022-12-10T10:33:50;94769.63;;;13.86;100.00
11676;BME280;5894;42.768;23.404;2022-12-10T10:36:26;94752.78;;;13.94;100.00
11676;BME280;5894;42.768;23.404;2022-12-10T10:38:54;94709.53;;;13.74;100.00
11676;BME280;5894;42.768;23.404;2022-12-10T10:41:23;94710.31;;;13.90;100.00
11676;BME280;5894;42.768;23.404;2022-12-10T10:43:58;94720.75;;;13.99;100.00
11676;BME280;5894;42.768;23.404;2022-12-10T10:46:26;94728.66;;;14.15;100.00
11676;BME280;5894;42.768;23.404;2022-12-10T10:49:12;94703.00;;;14.03;100.00
11676;BME280;5894;42.768;23.404;2022-12-10T10:51:42;94742.50;;;14.24;100.00
11676;BME280;5894;42.768;23.404;2022-12-10T10:54:09;94748.25;;;14.26;100.00
11676;BME280;5894;42.768;23.404;2022-12-10T10:56:40;94749.03;;;14.26;100.00
11676;BME280;5894;42.768;23.404;2022-12-10T10:59:23;94752.59;;;14.34;100.00
11676;BME280;5894;42.768;23.404;2022-12-10T11:01:59;94750.31;;;14.32;100.00
11676;BME280;5894;42.768;23.404;2022-12-10T11:04:30;94735.56;;;14.35;100.00
11676;BME280;5894;42.768;23.404;2022-12-10T11:07:00;94730.09;;;14.44;100.00
11676;BME280;5894;42.768;23.404;2022-12-10T11:09:29;94716.50;;;14.45;100.00
11676;BME280;5894;42.768;23.404;2022-12-10T11:11:58;94723.00;;;14.48;100.00
11676;BME280;5894;42.768;23.404;2022-12-10T11:14:29;94700.53;;;14.42;100.00
11676;BME280;5894;42.768;23.404;2022-12-10T11:17:02;94709.75;;;14.48;100.00
11676;BME280;5894;42.768;23.404;2022-12-10T11:19:31;94705.34;;;14.55;100.00
11676;BME280;5894;42.768;23.404;2022-12-10T11:22:15;94662.84;;;14.36;100.00
11676;BME280;5894;42.768;23.404;2022-12-10T11:24:42;94584.50;;;14.04;100.00
11676;BME280;5894;42.768;23.404;2022-12-10T11:27:13;94688.56;;;14.67;100.00
11676;BME280;5894;42.768;23.404;2022-12-10T11:29:47;94668.94;;;14.72;100.00
11676;BME280;5894;42.768;23.404;2022-12-10T11:32:34;94668.59;;;14.73;100.00
11676;BME280;5894;42.768;23.404;2022-12-10T11:35:14;94657.97;;;14.73;100.00
11676;BME280;5894;42.768;23.404;2022-12-10T11:37:49;94654.94;;;14.75;100.00
11676;BME280;5894;42.768;23.404;2022-12-10T11:40:30;94658.31;;;14.72;100.00
11676;BME280;5894;42.768;23.404;2022-12-10T11:43:07;94615.38;;;14.47;100.00
11676;BME280;5894;42.768;23.404;2022-12-10T11:45:51;94663.00;;;14.78;100.00
11676;BME280;5894;42.768;23.404;2022-12-10T11:48:33;94669.75;;;14.76;100.00
11676;BME280;5894;42.768;23.404;2022-12-10T11:51:12;94663.75;;;14.79;100.00
11676;BME280;5894;42.768;23.404;2022-12-10T11:53:56;94655.72;;;14.75;100.00
11676;BME280;5894;42.768;23.404;2022-12-10T11:56:31;94658.13;;;14.80;100.00
11676;BME280;5894;42.768;23.404;2022-12-10T11:59:09;94646.31;;;14.78;100.00
11676;BME280;5894;42.768;23.404;2022-12-10T12:01:59;94650.22;;;14.84;100.00
11676;BME280;5894;42.768;23.404;2022-12-10T12:04:56;94641.72;;;14.94;100.00
11676;BME280;5894;42.768;23.404;2022-12-10T12:07:38;94648.59;;;14.98;100.00
11676;BME280;5894;42.768;23.404;2022-12-10T12:10:35;94653.91;;;14.98;100.00
11676;BME280;5894;42.768;23.404;2022-12-10T12:13:11;94653.69;;;15.07;100.00
11676;BME280;5894;42.768;23.404;2022-12-10T12:15:44;94631.47;;;14.96;100.00
11676;BME280;5894;42.768;23.404;2022-12-10T12:18:17;94641.69;;;15.13;100.00
11676;BME280;5894;42.768;23.404;2022-12-10T12:20:49;94618.56;;;15.14;100.00
11676;BME280;5894;42.768;23.404;2022-12-10T12:23:25;94611.13;;;15.23;100.00
11676;BME280;5894;42.768;23.404;2022-12-10T12:25:56;94608.75;;;15.18;100.00
11676;BME280;5894;42.768;23.404;2022-12-10T12:28:27;94605.03;;;15.22;100.00
11676;BME280;5894;42.768;23.404;2022-12-10T12:31:01;94608.03;;;15.21;100.00
11676;BME280;5894;42.768;23.404;2022-12-10T12:33:35;94597.59;;;15.09;100.00
11676;BME280;5894;42.768;23.404;2022-12-10T12:36:09;94607.63;;;15.19;100.00
11676;BME280;5894;42.768;23.404;2022-12-10T12:38:42;94608.81;;;15.21;100.00
11676;BME280;5894;42.768;23.404;2022-12-10T12:41:15;94546.91;;;14.94;100.00
11676;BME280;5894;42.768;23.404;2022-12-10T12:43:48;94584.91;;;15.21;100.00
11676;BME280;5894;42.768;23.404;2022-12-10T12:46:30;94583.78;;;15.22;100.00
11676;BME280;5894;42.768;23.404;2022-12-10T12:49:02;94580.38;;;15.22;100.00
11676;BME280;5894;42.768;23.404;2022-12-10T12:51:37;94584.06;;;15.17;100.00
11676;BME280;5894;42.768;23.404;2022-12-10T12:54:07;94574.22;;;15.18;100.00
11676;BME280;5894;42.768;23.404;2022-12-10T12:56:50;94566.91;;;15.11;100.00
11676;BME280;5894;42.768;23.404;2022-12-10T12:59:31;94572.31;;;15.18;100.00
11676;BME280;5894;42.768;23.404;2022-12-10T13:02:15;94570.03;;;15.17;100.00
11676;BME280;5894;42.768;23.404;2022-12-10T13:04:45;94567.31;;;15.13;100.00
11676;BME280;5894;42.768;23.404;2022-12-10T13:07:34;94559.00;;;15.15;100.00
11676;BME280;5894;42.768;23.404;2022-12-10T13:10:18;94559.38;;;15.13;100.00
11676;BME280;5894;42.768;23.404;2022-12-10T13:12:49;94554.81;;;15.14;100.00